Time;durP1;ratioP1;P1;durP2;ratioP2;P2;SDS_P1;SDS_P2;PMS_P1;PMS_P2;Temp;Humidity;BMP_temperature;BMP_pressure;BME280_temperature;BME280_humidity;BME280_pressure;Samples;Min_cycle;Max_cycle;Signal;HPM_P1;HPM_P2
2022/05/13 00:00:43;;;;;;;5.90;2.53;;;21.90;79.10;;;;;;5097818;23;20029;-46
2022/05/13 00:02:45;;;;;;;4.82;2.45;;;21.90;79.20;;;;;;5093603;23;20428;-44
2022/05/13 00:04:47;;;;;;;3.38;2.22;;;21.90;79.20;;;;;;5093194;23;20032;-49
2022/05/13 00:06:50;;;;;;;4.20;2.60;;;21.90;79.20;;;;;;5100518;23;20028;-43
2022/05/13 00:08:52;;;;;;;3.53;2.10;;;21.90;79.20;;;;;;5098280;23;20063;-47
2022/05/13 00:10:55;;;;;;;3.55;2.30;;;21.90;79.20;;;;;;5094196;23;20029;-46
2022/05/13 00:12:57;;;;;;;;;;;21.90;79.80;;;;;;5070580;23;20029;-44
2022/05/13 00:15:02;;;;;;;4.85;2.42;;;21.80;79.10;;;;;;5099890;23;19944;-44
2022/05/13 00:17:05;;;;;;;4.80;2.22;;;21.80;79.10;;;;;;5096799;23;20040;-43
2022/05/13 00:19:11;;;;;;;4.28;2.30;;;21.80;79.10;;;;;;5094493;23;20039;-45
2022/05/13 00:21:13;;;;;;;4.18;2.53;;;21.80;79.10;;;;;;5097469;23;20036;-44
2022/05/13 00:23:15;;;;;;;2.97;2.03;;;21.80;79.20;;;;;;5071708;23;20299;-43
2022/05/13 00:25:21;;;;;;;3.00;2.00;;;21.80;79.20;;;;;;5097424;23;20028;-43
2022/05/13 00:27:24;;;;;;;2.72;2.05;;;21.80;79.20;;;;;;5095737;23;20071;-45
2022/05/13 00:29:27;;;;;;;3.25;2.30;;;21.80;79.20;;;;;;5104752;23;20040;-43
2022/05/13 00:31:29;;;;;;;3.30;2.00;;;21.80;79.20;;;;;;5103209;23;20032;-44
2022/05/13 00:33:32;;;;;;;2.50;1.85;;;21.80;79.20;;;;;;5096111;23;20031;-45
2022/05/13 00:35:34;;;;;;;2.63;2.00;;;21.80;79.20;;;;;;5096228;23;20040;-43
2022/05/13 00:37:36;;;;;;;3.03;2.20;;;21.80;79.20;;;;;;5072656;23;20473;-43
2022/05/13 00:39:38;;;;;;;2.83;1.88;;;21.80;79.20;;;;;;5093791;23;20028;-42
2022/05/13 00:41:40;;;;;;;2.90;2.00;;;21.80;79.20;;;;;;5068040;23;20029;-43
2022/05/13 00:43:45;;;;;;;3.83;2.10;;;21.80;79.20;;;;;;5100981;23;20033;-43
2022/05/13 00:45:47;;;;;;;2.47;1.83;;;21.80;79.20;;;;;;5094788;23;20254;-47
2022/05/13 00:47:49;;;;;;;3.22;1.90;;;21.70;79.20;;;;;;5094303;23;20047;-44
2022/05/13 00:49:53;;;;;;;2.83;2.00;;;21.70;79.20;;;;;;5097116;23;20118;-44
2022/05/13 00:51:55;;;;;;;3.05;1.70;;;21.70;79.20;;;;;;5099891;23;20143;-47
2022/05/13 00:53:58;;;;;;;2.17;1.85;;;21.70;79.80;;;;;;5090061;23;20028;-44
2022/05/13 00:56:01;;;;;;;3.35;2.05;;;21.70;79.30;;;;;;5094555;23;20029;-45
2022/05/13 00:58:07;;;;;;;3.25;1.98;;;21.70;79.20;;;;;;5100507;23;20535;-43
2022/05/13 01:00:13;;;;;;;2.60;1.70;;;21.70;79.80;;;;;;5099772;23;20060;-47
2022/05/13 01:02:15;;;;;;;2.78;1.92;;;21.70;79.20;;;;;;5094087;23;20489;-46
2022/05/13 01:04:19;;;;;;;2.72;1.70;;;21.70;79.20;;;;;;5094440;23;20032;-46
2022/05/13 01:06:24;;;;;;;2.33;1.77;;;21.70;79.20;;;;;;5097745;23;20127;-45
2022/05/13 01:08:31;;;;;;;2.80;2.00;;;21.70;79.20;;;;;;5099157;23;20318;-49
2022/05/13 01:10:36;;;;;;;2.67;1.85;;;21.70;79.30;;;;;;5097144;23;20237;-46
2022/05/13 01:12:42;;;;;;;2.75;1.98;;;21.70;79.20;;;;;;5065491;23;20052;-45
2022/05/13 01:14:56;;;;;;;2.85;1.90;;;21.70;79.30;;;;;;5094445;23;20552;-45
2022/05/13 01:19:38;;;;;;;2.35;1.60;;;21.70;79.30;;;;;;5068912;23;20032;-44
2022/05/13 01:21:40;;;;;;;2.22;1.60;;;21.60;79.30;;;;;;5100312;23;20082;-45
2022/05/13 01:23:45;;;;;;;2.90;1.88;;;21.60;79.30;;;;;;5094640;23;20428;-46
2022/05/13 01:25:56;;;;;;;2.72;1.77;;;21.60;79.30;;;;;;5068690;23;20040;-43
2022/05/13 01:28:10;;;;;;;2.67;1.77;;;21.60;79.30;;;;;;5067676;23;20029;-45
2022/05/13 01:30:21;;;;;;;3.13;1.95;;;21.60;79.30;;;;;;5093630;23;20315;-50
2022/05/13 01:32:23;;;;;;;3.75;1.92;;;21.60;79.30;;;;;;5092598;23;20032;-44
2022/05/13 01:34:25;;;;;;;2.50;1.80;;;21.60;79.30;;;;;;5098154;23;20088;-43
2022/05/13 01:36:28;;;;;;;2.88;2.00;;;21.60;79.30;;;;;;5097832;23;20032;-46
2022/05/13 01:38:35;;;;;;;3.20;2.00;;;21.60;79.40;;;;;;5094456;23;20035;-48
2022/05/13 01:40:38;;;;;;;2.60;1.70;;;21.60;79.30;;;;;;5093166;23;20232;-47
2022/05/13 01:42:40;;;;;;;2.50;2.00;;;21.60;79.40;;;;;;5098923;23;20287;-50
2022/05/13 01:44:42;;;;;;;1.77;1.40;;;21.60;79.30;;;;;;5046983;23;20720;-46
2022/05/13 01:46:44;;;;;;;2.67;1.67;;;21.60;79.30;;;;;;5065375;23;20033;-48
2022/05/13 01:48:48;;;;;;;2.47;1.48;;;21.60;79.30;;;;;;5095421;23;20033;-46
2022/05/13 01:50:50;;;;;;;2.50;1.58;;;21.60;79.30;;;;;;5100398;23;20087;-44
2022/05/13 01:52:52;;;;;;;3.03;1.60;;;21.60;79.30;;;;;;5065931;23;20117;-47
2022/05/13 01:54:54;;;;;;;2.72;1.92;;;21.60;79.30;;;;;;5093268;23;20033;-44
2022/05/13 01:56:56;;;;;;;1.70;1.50;;;21.60;79.20;;;;;;5099261;23;20028;-46
2022/05/13 01:58:58;;;;;;;2.88;1.92;;;21.60;79.20;;;;;;5094215;23;20314;-45
2022/05/13 02:01:03;;;;;;;2.35;1.60;;;21.60;79.20;;;;;;5094006;23;20465;-44
2022/05/13 02:05:25;;;;;;;2.80;1.50;;;21.60;79.20;;;;;;5093661;23;20033;-45
2022/05/13 02:07:28;;;;;;;1.95;1.55;;;21.70;79.20;;;;;;5095751;23;20039;-44
2022/05/13 02:09:30;;;;;;;2.55;1.70;;;21.70;79.20;;;;;;5095555;23;20205;-44
2022/05/13 02:11:33;;;;;;;2.58;1.50;;;21.70;79.10;;;;;;5094700;23;20375;-43
2022/05/13 02:13:35;;;;;;;2.40;1.50;;;21.70;79.10;;;;;;5066187;23;20112;-44
2022/05/13 02:15:37;;;;;;;3.20;1.43;;;21.70;79.10;;;;;;5100853;23;20059;-46
2022/05/13 02:17:39;;;;;;;2.33;1.80;;;21.70;79.10;;;;;;5095484;23;20094;-45
2022/05/13 02:23:46;;;;;;;2.90;1.75;;;21.70;79.00;;;;;;5151192;23;20435;-45
2022/05/13 02:26:18;;;;;;;2.08;1.20;;;21.80;79.10;;;;;;5139253;23;20023;-45
2022/05/13 02:28:20;;;;;;;2.85;1.60;;;21.80;79.00;;;;;;5141922;23;20031;-44
2022/05/13 02:33:45;;;;;;;2.58;1.65;;;21.80;79.00;;;;;;5107973;23;20011;-45
2022/05/13 02:35:48;;;;;;;1.53;1.20;;;21.80;79.00;;;;;;5093830;23;20033;-46
2022/05/13 02:37:50;;;;;;;1.98;1.55;;;21.80;79.00;;;;;;5092239;23;20024;-49
2022/05/13 02:39:52;;;;;;;2.25;1.67;;;21.80;79.10;;;;;;5100057;23;20033;-50
2022/05/13 02:41:54;;;;;;;1.85;1.30;;;21.80;79.10;;;;;;5093006;23;20511;-46
2022/05/13 02:43:57;;;;;;;2.30;1.55;;;21.80;79.20;;;;;;5093962;23;20032;-44
2022/05/13 02:45:59;;;;;;;2.53;1.52;;;21.80;79.20;;;;;;5098857;23;20110;-44
2022/05/13 02:48:01;;;;;;;1.30;1.15;;;21.80;78.70;;;;;;5095758;23;20974;-44
2022/05/13 02:50:20;;;;;;;1.80;1.40;;;21.80;79.30;;;;;;5093505;23;20461;-48
2022/05/13 02:52:22;;;;;;;1.67;1.23;;;21.80;79.30;;;;;;5094529;23;20045;-47
2022/05/13 02:54:25;;;;;;;1.70;1.30;;;21.80;79.30;;;;;;5092990;23;20147;-45
2022/05/13 02:56:27;;;;;;;2.50;1.67;;;21.80;79.40;;;;;;5097695;23;20433;-48
2022/05/13 02:58:29;;;;;;;1.90;1.40;;;21.80;79.40;;;;;;5095176;23;20319;-45
2022/05/13 03:00:32;;;;;;;3.08;1.55;;;21.80;79.40;;;;;;5093368;23;20028;-49
2022/05/13 03:02:35;;;;;;;2.42;1.50;;;21.80;79.40;;;;;;5092975;23;20029;-44
2022/05/13 03:04:37;;;;;;;2.00;1.10;;;21.80;79.40;;;;;;5099155;23;20361;-44
2022/05/13 03:06:39;;;;;;;2.92;1.52;;;21.80;79.40;;;;;;5094055;23;20371;-48
2022/05/13 03:08:41;;;;;;;1.25;1.05;;;21.80;79.40;;;;;;5093525;23;20838;-47
2022/05/13 03:10:43;;;;;;;2.85;1.52;;;21.80;79.40;;;;;;5099701;23;20028;-46
2022/05/13 03:12:45;;;;;;;2.72;1.90;;;21.80;79.40;;;;;;5093914;23;20669;-44
2022/05/13 03:14:47;;;;;;;2.03;1.30;;;21.80;79.40;;;;;;5092800;23;20119;-47
2022/05/13 03:16:50;;;;;;;1.75;1.40;;;21.80;79.40;;;;;;5096393;23;20391;-46
2022/05/13 03:18:58;;;;;;;1.80;1.30;;;21.80;79.40;;;;;;5097139;23;20444;-48
2022/05/13 03:21:01;;;;;;;2.25;1.40;;;21.80;79.40;;;;;;5067968;23;20364;-45
2022/05/13 03:23:03;;;;;;;2.07;1.23;;;21.80;79.40;;;;;;5093260;23;20025;-47
2022/05/13 03:25:06;;;;;;;3.77;1.53;;;21.80;79.40;;;;;;5096938;23;20070;-45
2022/05/13 03:27:08;;;;;;;2.08;1.38;;;21.80;79.40;;;;;;5096354;23;20488;-48
2022/05/13 03:29:11;;;;;;;2.50;1.40;;;21.80;79.40;;;;;;5093561;23;20032;-47
2022/05/13 03:31:13;;;;;;;2.33;1.20;;;21.80;79.40;;;;;;5092337;23;20090;-46
2022/05/13 03:33:17;;;;;;;2.37;1.20;;;21.80;79.40;;;;;;5099909;23;20119;-47
2022/05/13 03:35:20;;;;;;;2.03;1.48;;;21.80;79.30;;;;;;5092490;23;20030;-44
2022/05/13 03:37:22;;;;;;;2.08;1.40;;;21.80;79.30;;;;;;5093439;23;20091;-45
2022/05/13 03:39:25;;;;;;;2.25;1.30;;;21.90;79.40;;;;;;5096668;23;20035;-45
2022/05/13 03:41:27;;;;;;;1.65;1.25;;;21.90;79.40;;;;;;5097676;23;20046;-43
2022/05/13 03:43:29;;;;;;;2.30;1.40;;;21.80;79.40;;;;;;5092859;23;20040;-48
2022/05/13 03:45:36;;;;;;;1.27;1.13;;;21.90;79.40;;;;;;5092881;23;20454;-44
2022/05/13 03:47:38;;;;;;;1.95;1.35;;;21.80;79.40;;;;;;5098150;23;20095;-43
2022/05/13 03:49:40;;;;;;;1.40;1.20;;;21.90;79.40;;;;;;5095539;23;20095;-44
2022/05/13 03:51:42;;;;;;;1.65;1.13;;;21.90;79.40;;;;;;5091630;23;20033;-49
2022/05/13 03:53:45;;;;;;;2.20;1.50;;;21.90;79.40;;;;;;5096263;23;20708;-44
2022/05/13 03:55:47;;;;;;;1.85;1.45;;;21.90;79.40;;;;;;5097401;23;20025;-44
2022/05/13 03:57:49;;;;;;;2.10;1.33;;;21.90;79.40;;;;;;5091994;23;20029;-45
2022/05/13 03:59:51;;;;;;;1.73;1.50;;;21.90;79.30;;;;;;5065547;23;20564;-46
2022/05/13 04:01:54;;;;;;;2.03;1.30;;;21.90;79.40;;;;;;5071573;23;20021;-43
2022/05/13 04:03:56;;;;;;;3.03;1.38;;;21.90;79.40;;;;;;5092201;23;20559;-46
2022/05/13 04:10:40;;;;;;;2.20;1.38;;;21.90;79.30;;;;;;5099323;23;20475;-49
2022/05/13 04:17:22;;;;;;;1.88;1.27;;;22.00;79.10;;;;;;5096689;23;20605;-43
2022/05/13 04:19:25;;;;;;;1.85;1.20;;;22.00;79.00;;;;;;5095184;23;20959;-44
2022/05/13 04:21:29;;;;;;;1.70;1.10;;;22.00;79.00;;;;;;5093255;23;20178;-43
2022/05/13 04:23:33;;;;;;;1.83;1.10;;;22.00;79.00;;;;;;5092761;23;20333;-44
2022/05/13 04:25:35;;;;;;;1.98;1.23;;;22.00;79.00;;;;;;5073036;23;20202;-43
2022/05/13 04:27:39;;;;;;;1.10;1.00;;;22.00;79.00;;;;;;5065212;23;20557;-43
2022/05/13 04:29:41;;;;;;;1.58;0.90;;;22.00;79.00;;;;;;5095508;23;20024;-44
2022/05/13 04:31:44;;;;;;;1.52;0.98;;;22.00;78.90;;;;;;5097651;23;20119;-44
2022/05/13 04:33:46;;;;;;;;;;;22.00;78.90;;;;;;5070997;23;20025;-45
2022/05/13 04:35:48;;;;;;;2.05;1.30;;;22.00;78.90;;;;;;5092555;23;19920;-47
2022/05/13 04:37:50;;;;;;;1.83;1.00;;;22.00;78.80;;;;;;5093742;23;20029;-48
2022/05/13 04:39:53;;;;;;;1.38;1.13;;;22.00;78.80;;;;;;5098980;23;20029;-44
2022/05/13 04:44:17;;;;;;;1.20;1.10;;;22.10;78.90;;;;;;5094373;23;20028;-47
2022/05/13 04:46:19;;;;;;;1.42;0.98;;;22.10;78.80;;;;;;5090369;23;20032;-44
2022/05/13 04:48:22;;;;;;;1.35;1.15;;;22.10;78.90;;;;;;5092420;23;20435;-48
2022/05/13 04:50:24;;;;;;;1.20;1.10;;;22.10;78.90;;;;;;5098006;23;20079;-43
2022/05/13 04:52:27;;;;;;;1.58;1.00;;;22.10;78.90;;;;;;5092888;23;20029;-45
2022/05/13 04:54:29;;;;;;;1.63;1.20;;;22.10;78.90;;;;;;5092402;23;20535;-44
2022/05/13 04:56:31;;;;;;;1.17;1.00;;;22.10;78.80;;;;;;5066679;23;20025;-44
2022/05/13 04:58:34;;;;;;;1.77;1.20;;;22.00;78.70;;;;;;5094797;23;20414;-47
2022/05/13 05:00:36;;;;;;;1.15;0.85;;;22.10;78.70;;;;;;5094015;23;20128;-49
2022/05/13 05:02:38;;;;;;;2.00;1.25;;;22.10;78.70;;;;;;5091875;23;20032;-45
2022/05/13 05:04:41;;;;;;;1.70;1.27;;;22.10;78.70;;;;;;5099044;23;20344;-50
2022/05/13 05:06:43;;;;;;;1.50;1.08;;;22.10;78.70;;;;;;5090884;23;20384;-43
2022/05/13 05:08:45;;;;;;;2.45;1.10;;;22.10;78.90;;;;;;5089174;23;20325;-45
2022/05/13 05:10:48;;;;;;;2.07;1.23;;;22.10;78.90;;;;;;5096405;23;20040;-43
2022/05/13 05:12:57;;;;;;;1.63;1.10;;;22.10;78.90;;;;;;5092665;23;20392;-45
2022/05/13 05:14:59;;;;;;;1.17;1.05;;;22.10;78.90;;;;;;5093268;23;20024;-47
2022/05/13 05:17:01;;;;;;;1.95;1.20;;;22.10;79.00;;;;;;5092687;23;20029;-45
2022/05/13 05:19:04;;;;;;;2.10;1.25;;;22.10;78.90;;;;;;5096636;23;20028;-45
2022/05/13 05:21:08;;;;;;;1.23;1.13;;;22.20;78.90;;;;;;5092485;23;20455;-45
2022/05/13 05:23:22;;;;;;;1.33;1.13;;;22.20;78.90;;;;;;5088535;23;20028;-48
2022/05/13 05:25:28;;;;;;;0.88;0.82;;;22.20;78.80;;;;;;5091382;23;20033;-44
2022/05/13 05:27:35;;;;;;;1.52;1.10;;;22.30;78.70;;;;;;5090933;23;20046;-43
2022/05/13 05:29:37;;;;;;;1.33;0.90;;;22.30;78.60;;;;;;5090912;23;20039;-43
2022/05/13 05:31:39;;;;;;;1.40;1.13;;;22.30;78.40;;;;;;5098764;23;20040;-48
2022/05/13 05:33:42;;;;;;;2.10;0.85;;;22.30;78.30;;;;;;5091800;23;20524;-49
2022/05/13 05:35:44;;;;;;;1.88;1.23;;;22.30;78.40;;;;;;5091679;23;20110;-43
2022/05/13 05:37:46;;;;;;;1.60;1.10;;;22.30;78.50;;;;;;5097577;23;20392;-43
2022/05/13 05:39:49;;;;;;;1.60;1.13;;;22.30;78.60;;;;;;5096811;23;20030;-45
2022/05/13 05:41:51;;;;;;;1.23;0.90;;;22.30;78.40;;;;;;5092177;23;20036;-48
2022/05/13 05:43:53;;;;;;;1.90;1.00;;;22.30;78.40;;;;;;5094151;23;20462;-43
2022/05/13 05:45:57;;;;;;;2.67;1.55;;;22.40;78.40;;;;;;5095323;23;20181;-45
2022/05/13 05:47:59;;;;;;;3.50;1.48;;;22.40;78.30;;;;;;5090336;23;20035;-44
2022/05/13 05:50:04;;;;;;;2.28;1.58;;;22.40;78.40;;;;;;5087163;23;20025;-48
2022/05/13 05:52:09;;;;;;;2.00;1.55;;;22.40;78.30;;;;;;5095469;23;20036;-43
2022/05/13 05:58:52;;;;;;;3.15;1.95;;;22.40;78.60;;;;;;5092893;23;20024;-45
2022/05/13 06:00:54;;;;;;;5.22;1.70;;;22.50;78.60;;;;;;5096723;23;20039;-44
2022/05/13 06:02:56;;;;;;;3.47;1.70;;;22.40;78.60;;;;;;5093594;23;20381;-48
2022/05/13 06:04:59;;;;;;;4.80;2.20;;;22.40;78.50;;;;;;5091302;23;20476;-47
2022/05/13 06:07:01;;;;;;;3.58;1.83;;;22.40;78.50;;;;;;5094095;23;20500;-44
2022/05/13 06:09:03;;;;;;;2.63;1.80;;;22.40;78.50;;;;;;5069603;23;20619;-47
2022/05/13 06:11:05;;;;;;;3.25;1.95;;;22.50;78.60;;;;;;5091442;23;20025;-43
2022/05/13 06:13:10;;;;;;;2.53;1.73;;;22.50;78.50;;;;;;5091671;23;20652;-49
2022/05/13 06:15:13;;;;;;;2.90;1.60;;;22.50;78.50;;;;;;5097515;23;20539;-48
2022/05/13 06:17:15;;;;;;;3.88;1.80;;;22.50;78.50;;;;;;5095757;23;20435;-45
2022/05/13 06:19:17;;;;;;;3.88;1.83;;;22.50;78.50;;;;;;5066737;23;20025;-51
2022/05/13 06:21:19;;;;;;;3.58;2.00;;;22.50;78.50;;;;;;5097492;23;20115;-46
2022/05/13 06:23:21;;;;;;;3.83;1.92;;;22.50;78.50;;;;;;5097389;23;20985;-46
2022/05/13 06:25:24;;;;;;;2.97;1.88;;;22.50;78.50;;;;;;5093884;23;20496;-47
2022/05/13 06:27:26;;;;;;;4.15;2.28;;;22.60;78.60;;;;;;5093300;23;20134;-46
2022/05/13 06:29:28;;;;;;;3.33;1.80;;;22.50;78.60;;;;;;5098916;23;20029;-43
2022/05/13 06:31:31;;;;;;;3.00;1.90;;;22.50;78.60;;;;;;5090269;23;20064;-46
2022/05/13 06:33:34;;;;;;;4.35;2.00;;;22.50;78.70;;;;;;5092944;23;20031;-43
2022/05/13 06:35:38;;;;;;;3.67;1.75;;;22.50;78.80;;;;;;5099732;23;20250;-44
2022/05/13 06:37:40;;;;;;;3.83;2.00;;;22.50;78.70;;;;;;5098212;23;20024;-44
2022/05/13 06:39:42;;;;;;;2.72;1.90;;;22.50;78.80;;;;;;5093232;23;20054;-44
2022/05/13 06:41:44;;;;;;;4.38;2.10;;;22.50;78.80;;;;;;5095024;23;20404;-46
2022/05/13 06:53:45;;;;;;;4.13;1.70;;;22.60;78.50;;;;;;5112086;23;20501;-45
2022/05/13 06:55:47;;;;;;;3.15;1.60;;;22.50;78.70;;;;;;5102091;23;20305;-48
2022/05/13 06:57:50;;;;;;;2.38;1.55;;;22.50;78.80;;;;;;5095004;23;20119;-44
2022/05/13 06:59:52;;;;;;;3.95;1.98;;;22.50;78.90;;;;;;5098769;23;20029;-47
2022/05/13 07:01:54;;;;;;;2.30;1.50;;;22.50;79.10;;;;;;5095127;23;20417;-46
2022/05/13 07:03:56;;;;;;;3.83;1.80;;;22.40;79.10;;;;;;5091252;23;20095;-45
2022/05/13 07:05:58;;;;;;;2.70;1.80;;;22.40;79.20;;;;;;5092803;23;20024;-44
2022/05/13 07:08:00;;;;;;;2.53;1.50;;;22.40;79.40;;;;;;5071698;23;20029;-46
2022/05/13 07:10:03;;;;;;;4.13;1.90;;;22.40;79.50;;;;;;5092729;23;20468;-43
2022/05/13 07:12:06;;;;;;;4.20;1.70;;;22.40;79.50;;;;;;5088469;23;20119;-46
2022/05/13 07:14:08;;;;;;;3.42;1.80;;;22.40;79.50;;;;;;5097231;23;20075;-44
2022/05/13 07:16:11;;;;;;;2.10;1.45;;;22.40;79.50;;;;;;5066521;23;20533;-46
2022/05/13 07:18:14;;;;;;;3.08;1.70;;;22.40;79.60;;;;;;5092228;23;20146;-45
2022/05/13 07:20:17;;;;;;;4.78;1.70;;;22.40;79.60;;;;;;5062304;23;20032;-44
2022/05/13 07:22:20;;;;;;;3.70;1.88;;;22.40;79.70;;;;;;5068724;23;20080;-48
2022/05/13 07:24:23;;;;;;;2.85;1.38;;;22.40;79.70;;;;;;5089416;23;20029;-45
2022/05/13 07:26:25;;;;;;;2.58;1.48;;;22.40;79.70;;;;;;5086124;23;20536;-46
2022/05/13 07:28:27;;;;;;;3.53;1.48;;;22.30;79.70;;;;;;5097045;23;20051;-44
2022/05/13 07:30:29;;;;;;;2.23;1.43;;;22.30;79.70;;;;;;5094768;23;20071;-46
2022/05/13 07:32:32;;;;;;;2.25;1.40;;;22.40;79.70;;;;;;5095239;23;20143;-44
2022/05/13 07:34:35;;;;;;;1.85;1.20;;;22.30;79.60;;;;;;5068688;23;20029;-44
2022/05/13 07:36:37;;;;;;;1.97;1.40;;;22.40;79.70;;;;;;5098555;23;20032;-45
2022/05/13 07:41:16;;;;;;;2.72;1.20;;;22.40;79.70;;;;;;5094836;23;20025;-47
2022/05/13 07:41:18;;;;;;;2.67;1.42;;;22.40;79.90;;;;;;5101667;23;20324;-48
2022/05/13 07:43:21;;;;;;;2.63;1.65;;;22.30;79.80;;;;;;5100901;23;20036;-45
2022/05/13 07:45:23;;;;;;;1.85;1.20;;;22.30;79.80;;;;;;5097812;23;20481;-48
2022/05/13 07:47:25;;;;;;;2.10;1.40;;;22.40;80.00;;;;;;5096215;23;20056;-48
2022/05/13 07:49:28;;;;;;;2.83;1.50;;;22.30;79.80;;;;;;5093235;23;20423;-47
2022/05/13 07:51:30;;;;;;;2.33;1.40;;;22.30;79.80;;;;;;5098197;23;20024;-44
2022/05/13 07:53:33;;;;;;;4.55;1.60;;;22.40;79.90;;;;;;5090450;23;20199;-48
2022/05/13 07:55:35;;;;;;;2.87;1.60;;;22.30;79.90;;;;;;5092773;23;20663;-48
2022/05/13 07:57:38;;;;;;;4.20;1.95;;;22.30;80.00;;;;;;5097411;23;20264;-45
2022/05/13 08:02:02;;;;;;;2.35;1.48;;;22.30;80.00;;;;;;5098048;23;20063;-45
2022/05/13 08:04:04;;;;;;;2.95;1.63;;;22.30;80.20;;;;;;5090719;23;20032;-45
2022/05/13 08:06:07;;;;;;;3.73;1.53;;;22.30;80.00;;;;;;5092514;23;20028;-46
2022/05/13 08:08:17;;;;;;;3.38;1.70;;;22.30;80.10;;;;;;5092840;23;20103;-47
2022/05/13 08:10:19;;;;;;;2.83;1.52;;;22.30;80.10;;;;;;5099776;23;20024;-46
2022/05/13 08:12:21;;;;;;;2.17;1.40;;;22.30;80.10;;;;;;5066655;23;20484;-45
2022/05/13 08:14:23;;;;;;;3.15;1.48;;;22.30;80.20;;;;;;5094152;23;20087;-46
2022/05/13 08:16:29;;;;;;;2.53;1.55;;;22.30;80.20;;;;;;5094464;23;20038;-44
2022/05/13 08:18:32;;;;;;;2.72;1.40;;;22.30;80.20;;;;;;5098735;23;20489;-45
2022/05/13 08:20:35;;;;;;;3.10;1.70;;;22.30;80.10;;;;;;5092239;23;20232;-44
2022/05/13 08:22:36;;;;;;;;;;;22.30;80.10;;;;;;5093808;23;20167;-47
2022/05/13 08:24:39;;;;;;;3.10;1.55;;;22.30;80.10;;;;;;5095613;23;20312;-46
2022/05/13 08:26:41;;;;;;;1.95;1.20;;;22.30;80.10;;;;;;5090695;23;20028;-49
2022/05/13 08:28:43;;;;;;;2.83;1.63;;;22.30;80.10;;;;;;5088700;23;20035;-44
2022/05/13 08:30:46;;;;;;;3.35;1.42;;;22.40;80.00;;;;;;5091230;23;20463;-46
2022/05/13 08:32:49;;;;;;;2.15;1.42;;;22.30;80.10;;;;;;5094246;23;20510;-45
2022/05/13 08:34:51;;;;;;;2.50;1.73;;;22.30;80.10;;;;;;5061049;23;20025;-46
2022/05/13 08:36:53;;;;;;;2.63;1.48;;;22.30;80.10;;;;;;5089412;23;20288;-49
2022/05/13 08:38:55;;;;;;;3.13;1.88;;;22.30;80.20;;;;;;5094051;23;20472;-47
2022/05/13 08:41:09;;;;;;;2.38;1.83;;;22.30;80.20;;;;;;5088464;23;20035;-49
2022/05/13 08:43:16;;;;;;;3.35;2.33;;;22.30;80.20;;;;;;5089925;23;20059;-48
2022/05/13 08:45:20;;;;;;;3.50;2.10;;;22.30;80.30;;;;;;5089299;23;20025;-45
2022/05/13 08:47:30;;;;;;;3.22;2.08;;;22.30;80.30;;;;;;5089794;23;20024;-45
2022/05/13 08:49:48;;;;;;;2.40;1.90;;;22.30;80.30;;;;;;5088895;23;20574;-45
2022/05/13 08:54:37;;;;;;;3.60;2.20;;;22.30;80.30;;;;;;5090826;23;20028;-48
2022/05/13 08:56:41;;;;;;;4.07;2.50;;;22.30;80.90;;;;;;5091344;23;20032;-45
2022/05/13 08:58:51;;;;;;;;;;;22.30;80.40;;;;;;5094182;23;20255;-47
2022/05/13 09:00:56;;;;;;;4.38;2.30;;;22.30;80.30;;;;;;5095809;23;20379;-47
2022/05/13 09:03:36;;;;;;;3.08;2.20;;;22.30;80.40;;;;;;5086503;23;20645;-52
2022/05/13 09:06:13;;;;;;;3.65;2.58;;;22.30;80.50;;;;;;5088926;23;20056;-46
2022/05/13 09:08:16;;;;;;;4.32;2.78;;;22.30;80.50;;;;;;5069426;23;20029;-45
2022/05/13 09:10:19;;;;;;;4.32;2.58;;;22.30;80.50;;;;;;5094864;23;20029;-49
2022/05/13 09:12:50;;;;;;;4.40;2.47;;;22.30;80.50;;;;;;5089409;23;20419;-48
2022/05/13 09:15:32;;;;;;;3.95;2.67;;;22.30;80.50;;;;;;5078247;23;20827;-48
2022/05/13 09:17:37;;;;;;;5.93;3.10;;;22.30;80.50;;;;;;5090789;23;20390;-45
2022/05/13 09:19:51;;;;;;;4.72;2.92;;;22.30;80.50;;;;;;5093947;23;20033;-47
2022/05/13 09:21:53;;;;;;;5.38;2.80;;;22.30;80.60;;;;;;5093689;23;20025;-45
2022/05/13 09:23:55;;;;;;;4.32;2.95;;;22.30;80.40;;;;;;5089334;23;20106;-47
2022/05/13 09:26:27;;;;;;;3.75;2.70;;;22.30;80.50;;;;;;5088662;23;20047;-43
2022/05/13 09:28:33;;;;;;;5.00;2.72;;;22.30;80.40;;;;;;5065319;23;20103;-47
2022/05/13 09:30:41;;;;;;;3.97;3.03;;;22.30;80.50;;;;;;5092451;23;20202;-49
2022/05/13 09:32:43;;;;;;;5.20;2.95;;;22.30;80.50;;;;;;5087629;23;20036;-45
2022/05/13 09:35:00;;;;;;;5.75;3.00;;;22.30;80.50;;;;;;5088589;23;20123;-50
2022/05/13 09:37:09;;;;;;;4.95;3.20;;;22.30;80.50;;;;;;5087658;23;20052;-45
2022/05/13 09:39:21;;;;;;;5.03;2.90;;;22.30;80.50;;;;;;5087711;23;20035;-47
2022/05/13 09:41:29;;;;;;;4.95;3.00;;;22.30;80.50;;;;;;5089229;23;20024;-44
2022/05/13 09:43:38;;;;;;;6.45;3.38;;;22.30;80.50;;;;;;5090154;23;20052;-44
2022/05/13 09:45:40;;;;;;;4.50;3.20;;;22.30;80.50;;;;;;5087958;23;20036;-46
2022/05/13 09:47:44;;;;;;;4.35;2.80;;;22.30;80.50;;;;;;5095849;23;20028;-44
2022/05/13 09:49:48;;;;;;;4.60;3.20;;;22.30;80.50;;;;;;5091307;23;20279;-45
2022/05/13 09:51:59;;;;;;;;;;;22.30;80.60;;;;;;5090137;23;20036;-47
2022/05/13 09:54:15;;;;;;;5.32;3.30;;;22.30;80.50;;;;;;5086948;23;20341;-45
2022/05/13 09:56:22;;;;;;;5.10;3.45;;;22.30;80.60;;;;;;5090438;23;20040;-46
2022/05/13 09:58:49;;;;;;;5.20;3.60;;;22.30;80.40;;;;;;5091294;23;20397;-44
2022/05/13 10:01:05;;;;;;;5.05;3.28;;;22.30;80.40;;;;;;5092853;23;20419;-44
2022/05/13 10:03:36;;;;;;;4.90;3.28;;;22.30;80.40;;;;;;5094449;23;20031;-45
2022/05/13 10:05:38;;;;;;;5.40;3.58;;;22.30;80.30;;;;;;5088534;23;20223;-49
2022/05/13 10:07:50;;;;;;;6.07;4.00;;;22.30;80.30;;;;;;5090860;23;20844;-44
2022/05/13 10:15:18;;;;;;;5.30;3.58;;;22.30;80.30;;;;;;5094509;23;20028;-47
2022/05/13 10:17:27;;;;;;;8.07;4.03;;;22.30;80.20;;;;;;5089113;23;20666;-44
2022/05/13 10:19:52;;;;;;;5.18;3.88;;;22.30;80.20;;;;;;5088039;23;20034;-46
2022/05/13 10:22:12;;;;;;;6.45;3.67;;;22.30;80.20;;;;;;5090936;23;20972;-46
2022/05/13 10:24:23;;;;;;;5.78;3.83;;;22.20;80.20;;;;;;5089584;23;20178;-43
2022/05/13 10:26:38;;;;;;;4.68;3.50;;;22.20;80.10;;;;;;5091333;23;20287;-44
2022/05/13 10:28:59;;;;;;;5.30;3.55;;;22.20;80.10;;;;;;5087771;23;20028;-45
2022/05/13 10:31:14;;;;;;;4.47;3.80;;;22.20;80.10;;;;;;5088225;23;20444;-45
2022/05/13 10:33:26;;;;;;;7.25;4.30;;;22.30;80.20;;;;;;5087959;23;20029;-44
2022/05/13 10:35:52;;;;;;;5.88;3.95;;;22.20;80.00;;;;;;5086723;23;20525;-46
2022/05/13 10:38:17;;;;;;;5.65;3.95;;;22.20;80.10;;;;;;5066944;23;20558;-44
2022/05/13 10:40:21;;;;;;;6.35;3.40;;;22.20;80.00;;;;;;5087571;23;20032;-48
2022/05/13 10:42:29;;;;;;;6.55;3.80;;;22.20;80.00;;;;;;5087763;23;20026;-46
2022/05/13 10:44:53;;;;;;;6.05;4.07;;;22.20;80.00;;;;;;5094582;23;20108;-46
2022/05/13 10:47:05;;;;;;;4.78;3.80;;;22.20;80.00;;;;;;5088248;23;20094;-48
2022/05/13 10:49:07;;;;;;;5.43;3.95;;;22.20;80.00;;;;;;5088359;23;20234;-47
2022/05/13 10:51:20;;;;;;;6.68;4.40;;;22.20;79.90;;;;;;5092858;23;20366;-45
2022/05/13 10:53:26;;;;;;;5.88;3.80;;;22.20;80.60;;;;;;5092255;23;20028;-45
2022/05/13 10:55:52;;;;;;;4.75;4.00;;;22.20;80.50;;;;;;5095772;23;20451;-45
2022/05/13 10:58:14;;;;;;;5.10;4.10;;;22.20;79.90;;;;;;5089445;23;20139;-46
2022/05/13 11:00:20;;;;;;;5.50;3.90;;;22.20;79.90;;;;;;5090507;23;20032;-44
2022/05/13 11:02:31;;;;;;;5.63;3.88;;;22.20;79.90;;;;;;5088605;23;20172;-47
2022/05/13 11:05:26;;;;;;;5.38;4.18;;;22.20;79.90;;;;;;5088777;23;20032;-46
2022/05/13 11:08:01;;;;;;;5.82;4.05;;;22.20;80.40;;;;;;4988878;23;20601;-44
2022/05/13 11:10:27;;;;;;;5.85;3.63;;;22.20;79.80;;;;;;5062474;23;20033;-46
2022/05/13 11:12:39;;;;;;;4.93;3.55;;;22.10;79.80;;;;;;5094018;23;20925;-45
2022/05/13 11:15:07;;;;;;;6.13;4.05;;;22.10;79.80;;;;;;5096692;23;20548;-45
2022/05/13 11:17:38;;;;;;;5.22;3.90;;;22.10;79.80;;;;;;5084792;23;20024;-46
2022/05/13 11:20:09;;;;;;;5.15;3.30;;;22.10;79.80;;;;;;5104072;23;20032;-45
2022/05/13 11:28:20;;;;;;;5.43;3.60;;;22.10;79.80;;;;;;5110553;23;20028;-46
2022/05/13 11:30:37;;;;;;;5.35;3.70;;;22.10;79.80;;;;;;5102014;23;20036;-44
2022/05/13 11:32:53;;;;;;;6.43;3.60;;;22.10;79.80;;;;;;5107644;23;20331;-48
2022/05/13 11:35:39;;;;;;;5.50;3.85;;;22.10;79.80;;;;;;5092415;23;20460;-50
2022/05/13 11:37:44;;;;;;;6.95;3.72;;;22.10;79.80;;;;;;5015414;23;20029;-44
2022/05/13 11:40:15;;;;;;;5.45;3.60;;;22.10;79.90;;;;;;5091581;23;20424;-48
2022/05/13 11:45:32;;;;;;;5.30;3.60;;;22.10;79.90;;;;;;5094485;23;20024;-45
2022/05/13 11:47:56;;;;;;;4.57;3.60;;;22.10;79.90;;;;;;5089543;23;20036;-49
2022/05/13 11:49:59;;;;;;;4.70;3.50;;;22.10;79.90;;;;;;5095284;23;20305;-47
2022/05/13 11:52:46;;;;;;;5.60;3.47;;;22.10;79.90;;;;;;5087047;23;20032;-48
2022/05/13 11:54:48;;;;;;;4.90;3.50;;;22.10;79.90;;;;;;5088806;23;20025;-46
2022/05/13 11:57:11;;;;;;;4.55;3.60;;;22.10;79.90;;;;;;5087703;23;20204;-46